Southill, Virginia
Current Conditions -  °F | °C
As of 2:36 AM on Sunday 23 Nov 2014 (Local Time) from KAVC Reporting Station
Clear Clear  
Wind Chill: 29°   Ceiling: Unl
Heat Index: 29°   Visibility: 10mi
Dew Point: 24°   Wind: 0mph
Humidity: 83%   Direction: NA
Pressure: 30.34"   Gusts: NA
Location:  36.743°N, 78.1806°W
Report Text: KAVC 230736Z AUTO 00000KT 10SM CLR M02/M04 A3034 RMK AO2 T10171043
Loading
Personal Weather Stations






























Interactive Weather Map New forecast layout! Learn more

10-Day Weather Forecast

Advertisements
Track Severe Weather on mobile